sensor_id;sensor_type;location;lat;lon;timestamp;P1;durP1;ratioP1;P2;durP2;ratioP2
66575;SDS011;53428;47.686;16.584;2023-01-23T00:03:35;25.95;;;13.65;;
66575;SDS011;53428;47.686;16.584;2023-01-23T00:08:34;25.63;;;12.63;;
66575;SDS011;53428;47.686;16.584;2023-01-23T00:13:34;28.42;;;13.45;;
66575;SDS011;53428;47.686;16.584;2023-01-23T00:18:34;23.42;;;12.38;;
66575;SDS011;53428;47.686;16.584;2023-01-23T00:23:34;25.85;;;12.63;;
66575;SDS011;53428;47.686;16.584;2023-01-23T00:28:33;23.33;;;12.07;;
66575;SDS011;53428;47.686;16.584;2023-01-23T00:33:33;23.75;;;12.18;;
66575;SDS011;53428;47.686;16.584;2023-01-23T00:38:33;26.27;;;12.98;;
66575;SDS011;53428;47.686;16.584;2023-01-23T00:43:32;19.27;;;10.55;;
66575;SDS011;53428;47.686;16.584;2023-01-23T00:48:32;18.88;;;10.80;;
66575;SDS011;53428;47.686;16.584;2023-01-23T00:53:31;23.40;;;12.57;;
66575;SDS011;53428;47.686;16.584;2023-01-23T00:58:30;22.85;;;10.77;;
66575;SDS011;53428;47.686;16.584;2023-01-23T01:03:30;21.70;;;11.90;;
66575;SDS011;53428;47.686;16.584;2023-01-23T01:08:30;24.60;;;13.23;;
66575;SDS011;53428;47.686;16.584;2023-01-23T01:13:29;22.35;;;12.05;;
66575;SDS011;53428;47.686;16.584;2023-01-23T01:18:28;31.25;;;13.75;;
66575;SDS011;53428;47.686;16.584;2023-01-23T01:23:28;24.83;;;12.57;;
66575;SDS011;53428;47.686;16.584;2023-01-23T01:28:27;27.52;;;13.07;;
66575;SDS011;53428;47.686;16.584;2023-01-23T01:33:31;26.40;;;14.68;;
66575;SDS011;53428;47.686;16.584;2023-01-23T01:38:32;26.55;;;14.43;;
66575;SDS011;53428;47.686;16.584;2023-01-23T01:43:31;25.05;;;13.05;;
66575;SDS011;53428;47.686;16.584;2023-01-23T01:48:34;25.63;;;12.32;;
66575;SDS011;53428;47.686;16.584;2023-01-23T01:53:38;29.42;;;13.38;;
66575;SDS011;53428;47.686;16.584;2023-01-23T01:58:39;27.17;;;13.38;;
66575;SDS011;53428;47.686;16.584;2023-01-23T02:03:40;27.83;;;14.35;;
66575;SDS011;53428;47.686;16.584;2023-01-23T02:13:59;28.05;;;14.68;;
66575;SDS011;53428;47.686;16.584;2023-01-23T02:18:59;30.05;;;15.35;;
66575;SDS011;53428;47.686;16.584;2023-01-23T02:24:24;32.47;;;14.65;;
66575;SDS011;53428;47.686;16.584;2023-01-23T02:29:42;30.80;;;14.50;;
66575;SDS011;53428;47.686;16.584;2023-01-23T02:34:43;30.13;;;13.90;;
66575;SDS011;53428;47.686;16.584;2023-01-23T02:39:43;31.05;;;16.15;;
66575;SDS011;53428;47.686;16.584;2023-01-23T02:44:43;33.78;;;16.98;;
66575;SDS011;53428;47.686;16.584;2023-01-23T02:49:42;35.38;;;16.30;;
66575;SDS011;53428;47.686;16.584;2023-01-23T02:54:42;35.17;;;17.48;;
66575;SDS011;53428;47.686;16.584;2023-01-23T02:59:42;30.13;;;15.23;;
66575;SDS011;53428;47.686;16.584;2023-01-23T03:04:59;31.42;;;15.77;;
66575;SDS011;53428;47.686;16.584;2023-01-23T03:09:59;33.47;;;14.70;;
66575;SDS011;53428;47.686;16.584;2023-01-23T03:14:58;33.15;;;16.70;;
66575;SDS011;53428;47.686;16.584;2023-01-23T03:19:57;29.65;;;15.90;;
66575;SDS011;53428;47.686;16.584;2023-01-23T03:24:56;34.33;;;16.52;;
66575;SDS011;53428;47.686;16.584;2023-01-23T03:29:56;34.05;;;15.05;;
66575;SDS011;53428;47.686;16.584;2023-01-23T03:35:11;35.50;;;17.48;;
66575;SDS011;53428;47.686;16.584;2023-01-23T03:40:15;47.05;;;21.02;;
66575;SDS011;53428;47.686;16.584;2023-01-23T03:45:34;36.75;;;18.10;;
66575;SDS011;53428;47.686;16.584;2023-01-23T03:50:34;42.47;;;20.10;;
66575;SDS011;53428;47.686;16.584;2023-01-23T03:55:33;39.95;;;19.20;;
66575;SDS011;53428;47.686;16.584;2023-01-23T04:00:32;39.97;;;20.73;;
66575;SDS011;53428;47.686;16.584;2023-01-23T04:05:31;47.20;;;21.05;;
66575;SDS011;53428;47.686;16.584;2023-01-23T04:10:31;50.95;;;22.88;;
66575;SDS011;53428;47.686;16.584;2023-01-23T04:15:31;57.00;;;26.25;;
66575;SDS011;53428;47.686;16.584;2023-01-23T04:20:33;56.58;;;22.75;;
66575;SDS011;53428;47.686;16.584;2023-01-23T04:25:32;57.60;;;24.10;;
66575;SDS011;53428;47.686;16.584;2023-01-23T04:30:32;66.72;;;26.73;;
66575;SDS011;53428;47.686;16.584;2023-01-23T04:35:31;69.13;;;23.83;;
66575;SDS011;53428;47.686;16.584;2023-01-23T04:40:30;57.47;;;22.88;;
66575;SDS011;53428;47.686;16.584;2023-01-23T04:45:30;61.08;;;24.23;;
66575;SDS011;53428;47.686;16.584;2023-01-23T04:50:29;67.85;;;25.58;;
66575;SDS011;53428;47.686;16.584;2023-01-23T04:55:28;64.82;;;24.13;;
66575;SDS011;53428;47.686;16.584;2023-01-23T05:00:27;80.32;;;28.90;;
66575;SDS011;53428;47.686;16.584;2023-01-23T05:05:27;63.72;;;24.50;;
66575;SDS011;53428;47.686;16.584;2023-01-23T05:10:26;50.20;;;20.98;;
66575;SDS011;53428;47.686;16.584;2023-01-23T05:15:25;58.08;;;22.67;;
66575;SDS011;53428;47.686;16.584;2023-01-23T05:20:24;41.28;;;18.70;;
66575;SDS011;53428;47.686;16.584;2023-01-23T05:25:25;56.50;;;21.55;;
66575;SDS011;53428;47.686;16.584;2023-01-23T05:30:26;55.55;;;22.80;;
66575;SDS011;53428;47.686;16.584;2023-01-23T05:35:26;51.13;;;20.17;;
66575;SDS011;53428;47.686;16.584;2023-01-23T05:40:25;55.08;;;21.85;;
66575;SDS011;53428;47.686;16.584;2023-01-23T05:45:24;49.88;;;20.90;;
66575;SDS011;53428;47.686;16.584;2023-01-23T05:50:23;49.78;;;21.75;;
66575;SDS011;53428;47.686;16.584;2023-01-23T05:55:23;65.50;;;25.38;;
66575;SDS011;53428;47.686;16.584;2023-01-23T06:00:22;56.00;;;23.90;;
66575;SDS011;53428;47.686;16.584;2023-01-23T06:05:21;47.42;;;20.50;;
66575;SDS011;53428;47.686;16.584;2023-01-23T06:10:21;72.75;;;28.75;;
66575;SDS011;53428;47.686;16.584;2023-01-23T06:15:20;63.75;;;27.27;;
66575;SDS011;53428;47.686;16.584;2023-01-23T06:20:20;68.32;;;27.15;;
66575;SDS011;53428;47.686;16.584;2023-01-23T06:25:19;60.67;;;25.20;;
66575;SDS011;53428;47.686;16.584;2023-01-23T06:30:19;65.38;;;27.27;;
66575;SDS011;53428;47.686;16.584;2023-01-23T06:35:19;79.88;;;28.65;;
66575;SDS011;53428;47.686;16.584;2023-01-23T06:40:18;80.65;;;27.80;;
66575;SDS011;53428;47.686;16.584;2023-01-23T06:45:18;90.13;;;30.27;;
66575;SDS011;53428;47.686;16.584;2023-01-23T06:50:17;107.70;;;39.38;;
66575;SDS011;53428;47.686;16.584;2023-01-23T06:55:16;87.25;;;33.17;;
66575;SDS011;53428;47.686;16.584;2023-01-23T07:00:16;101.32;;;35.53;;
66575;SDS011;53428;47.686;16.584;2023-01-23T07:05:16;112.00;;;38.38;;
66575;SDS011;53428;47.686;16.584;2023-01-23T07:10:15;99.75;;;33.30;;
66575;SDS011;53428;47.686;16.584;2023-01-23T07:15:14;73.15;;;27.00;;
66575;SDS011;53428;47.686;16.584;2023-01-23T07:20:14;101.93;;;32.72;;
66575;SDS011;53428;47.686;16.584;2023-01-23T07:25:13;100.55;;;32.33;;
66575;SDS011;53428;47.686;16.584;2023-01-23T07:30:12;94.75;;;30.77;;
66575;SDS011;53428;47.686;16.584;2023-01-23T07:35:12;88.22;;;29.83;;
66575;SDS011;53428;47.686;16.584;2023-01-23T07:40:12;83.38;;;30.48;;
66575;SDS011;53428;47.686;16.584;2023-01-23T07:45:11;86.45;;;31.90;;
66575;SDS011;53428;47.686;16.584;2023-01-23T07:50:11;84.10;;;30.83;;
66575;SDS011;53428;47.686;16.584;2023-01-23T07:55:11;74.03;;;26.75;;
66575;SDS011;53428;47.686;16.584;2023-01-23T08:00:10;67.47;;;24.20;;
66575;SDS011;53428;47.686;16.584;2023-01-23T08:05:10;81.70;;;27.90;;
66575;SDS011;53428;47.686;16.584;2023-01-23T08:10:09;70.25;;;25.05;;
66575;SDS011;53428;47.686;16.584;2023-01-23T08:15:09;52.75;;;22.70;;
66575;SDS011;53428;47.686;16.584;2023-01-23T08:20:09;48.90;;;19.38;;
66575;SDS011;53428;47.686;16.584;2023-01-23T08:25:09;64.50;;;22.45;;
66575;SDS011;53428;47.686;16.584;2023-01-23T08:30:09;49.70;;;20.45;;
66575;SDS011;53428;47.686;16.584;2023-01-23T08:35:08;63.63;;;23.13;;
66575;SDS011;53428;47.686;16.584;2023-01-23T08:40:08;56.92;;;22.95;;
66575;SDS011;53428;47.686;16.584;2023-01-23T08:45:08;64.97;;;24.42;;
66575;SDS011;53428;47.686;16.584;2023-01-23T08:50:08;61.72;;;22.60;;
66575;SDS011;53428;47.686;16.584;2023-01-23T08:55:08;48.72;;;20.00;;
66575;SDS011;53428;47.686;16.584;2023-01-23T09:00:11;45.70;;;18.35;;
66575;SDS011;53428;47.686;16.584;2023-01-23T09:05:12;53.90;;;20.67;;
66575;SDS011;53428;47.686;16.584;2023-01-23T09:10:11;48.75;;;20.20;;
66575;SDS011;53428;47.686;16.584;2023-01-23T09:15:11;46.75;;;20.63;;
66575;SDS011;53428;47.686;16.584;2023-01-23T09:20:11;38.83;;;16.98;;
66575;SDS011;53428;47.686;16.584;2023-01-23T09:25:10;39.67;;;19.58;;
66575;SDS011;53428;47.686;16.584;2023-01-23T09:30:10;42.55;;;19.35;;
66575;SDS011;53428;47.686;16.584;2023-01-23T09:35:10;52.47;;;18.73;;
66575;SDS011;53428;47.686;16.584;2023-01-23T09:40:14;45.05;;;19.73;;
66575;SDS011;53428;47.686;16.584;2023-01-23T09:45:15;44.45;;;20.63;;
66575;SDS011;53428;47.686;16.584;2023-01-23T09:50:21;56.90;;;21.08;;
66575;SDS011;53428;47.686;16.584;2023-01-23T09:55:47;37.05;;;18.02;;
66575;SDS011;53428;47.686;16.584;2023-01-23T10:00:51;42.03;;;18.67;;
66575;SDS011;53428;47.686;16.584;2023-01-23T10:16:17;46.55;;;20.00;;
66575;SDS011;53428;47.686;16.584;2023-01-23T10:21:49;39.42;;;17.17;;
66575;SDS011;53428;47.686;16.584;2023-01-23T10:26:59;47.97;;;20.02;;
66575;SDS011;53428;47.686;16.584;2023-01-23T10:32:24;37.95;;;18.30;;
66575;SDS011;53428;47.686;16.584;2023-01-23T10:42:32;55.28;;;19.52;;
66575;SDS011;53428;47.686;16.584;2023-01-23T10:47:40;38.13;;;18.38;;
66575;SDS011;53428;47.686;16.584;2023-01-23T10:52:43;41.60;;;16.65;;
66575;SDS011;53428;47.686;16.584;2023-01-23T10:57:47;46.50;;;21.10;;
66575;SDS011;53428;47.686;16.584;2023-01-23T11:02:50;34.15;;;15.77;;
66575;SDS011;53428;47.686;16.584;2023-01-23T11:07:53;44.28;;;19.00;;
66575;SDS011;53428;47.686;16.584;2023-01-23T11:13:03;41.75;;;17.23;;
66575;SDS011;53428;47.686;16.584;2023-01-23T11:18:03;27.20;;;14.20;;
66575;SDS011;53428;47.686;16.584;2023-01-23T11:23:34;35.60;;;15.85;;
66575;SDS011;53428;47.686;16.584;2023-01-23T11:28:45;36.70;;;15.73;;
66575;SDS011;53428;47.686;16.584;2023-01-23T11:39:04;31.75;;;14.57;;
66575;SDS011;53428;47.686;16.584;2023-01-23T11:44:18;29.60;;;14.07;;
66575;SDS011;53428;47.686;16.584;2023-01-23T12:27:46;30.65;;;14.77;;
66575;SDS011;53428;47.686;16.584;2023-01-23T12:32:51;35.53;;;16.42;;
66575;SDS011;53428;47.686;16.584;2023-01-23T12:44:13;34.78;;;17.00;;
66575;SDS011;53428;47.686;16.584;2023-01-23T12:54:43;38.50;;;17.70;;
66575;SDS011;53428;47.686;16.584;2023-01-23T13:00:30;32.30;;;17.30;;
66575;SDS011;53428;47.686;16.584;2023-01-23T13:10:42;41.58;;;19.13;;
66575;SDS011;53428;47.686;16.584;2023-01-23T13:16:15;35.13;;;14.57;;
66575;SDS011;53428;47.686;16.584;2023-01-23T13:21:18;35.67;;;17.50;;
66575;SDS011;53428;47.686;16.584;2023-01-23T13:26:36;44.70;;;18.27;;
66575;SDS011;53428;47.686;16.584;2023-01-23T13:31:44;37.25;;;16.63;;
66575;SDS011;53428;47.686;16.584;2023-01-23T13:36:45;29.73;;;15.80;;
66575;SDS011;53428;47.686;16.584;2023-01-23T13:41:47;39.17;;;16.95;;
66575;SDS011;53428;47.686;16.584;2023-01-23T13:52:05;30.23;;;16.48;;
66575;SDS011;53428;47.686;16.584;2023-01-23T13:57:27;42.45;;;18.92;;
66575;SDS011;53428;47.686;16.584;2023-01-23T14:02:28;36.65;;;19.10;;
66575;SDS011;53428;47.686;16.584;2023-01-23T14:07:58;29.85;;;14.82;;
66575;SDS011;53428;47.686;16.584;2023-01-23T14:18:04;40.40;;;17.00;;
66575;SDS011;53428;47.686;16.584;2023-01-23T14:23:22;30.25;;;14.93;;
66575;SDS011;53428;47.686;16.584;2023-01-23T14:28:25;32.83;;;17.38;;
66575;SDS011;53428;47.686;16.584;2023-01-23T14:33:25;31.63;;;15.27;;
66575;SDS011;53428;47.686;16.584;2023-01-23T14:38:30;32.70;;;16.10;;
66575;SDS011;53428;47.686;16.584;2023-01-23T14:43:31;38.28;;;16.20;;
66575;SDS011;53428;47.686;16.584;2023-01-23T14:48:34;35.10;;;15.93;;
66575;SDS011;53428;47.686;16.584;2023-01-23T14:53:39;36.63;;;16.70;;
66575;SDS011;53428;47.686;16.584;2023-01-23T14:58:39;36.60;;;17.70;;
66575;SDS011;53428;47.686;16.584;2023-01-23T15:03:41;33.08;;;15.25;;
66575;SDS011;53428;47.686;16.584;2023-01-23T15:08:42;37.47;;;17.33;;
66575;SDS011;53428;47.686;16.584;2023-01-23T15:13:48;34.80;;;16.58;;
66575;SDS011;53428;47.686;16.584;2023-01-23T15:19:05;34.83;;;18.00;;
66575;SDS011;53428;47.686;16.584;2023-01-23T15:24:16;35.60;;;17.75;;
66575;SDS011;53428;47.686;16.584;2023-01-23T15:29:18;39.33;;;16.55;;
66575;SDS011;53428;47.686;16.584;2023-01-23T15:34:22;34.22;;;15.32;;
66575;SDS011;53428;47.686;16.584;2023-01-23T15:39:30;35.10;;;18.15;;
66575;SDS011;53428;47.686;16.584;2023-01-23T15:44:34;47.13;;;22.23;;
66575;SDS011;53428;47.686;16.584;2023-01-23T15:49:34;33.22;;;15.52;;
66575;SDS011;53428;47.686;16.584;2023-01-23T15:54:35;33.85;;;16.88;;
66575;SDS011;53428;47.686;16.584;2023-01-23T15:59:35;37.58;;;15.63;;
66575;SDS011;53428;47.686;16.584;2023-01-23T16:04:35;38.65;;;17.20;;
66575;SDS011;53428;47.686;16.584;2023-01-23T16:09:35;42.70;;;18.65;;
66575;SDS011;53428;47.686;16.584;2023-01-23T16:14:35;44.83;;;18.77;;
66575;SDS011;53428;47.686;16.584;2023-01-23T16:19:35;36.28;;;16.10;;
66575;SDS011;53428;47.686;16.584;2023-01-23T16:24:35;42.13;;;18.58;;
66575;SDS011;53428;47.686;16.584;2023-01-23T16:29:37;31.35;;;15.73;;
66575;SDS011;53428;47.686;16.584;2023-01-23T16:34:36;31.83;;;16.35;;
66575;SDS011;53428;47.686;16.584;2023-01-23T16:39:35;37.30;;;16.15;;
66575;SDS011;53428;47.686;16.584;2023-01-23T16:44:35;31.40;;;16.58;;
66575;SDS011;53428;47.686;16.584;2023-01-23T16:49:34;29.58;;;15.00;;
66575;SDS011;53428;47.686;16.584;2023-01-23T16:54:34;40.08;;;18.05;;
66575;SDS011;53428;47.686;16.584;2023-01-23T16:59:36;38.33;;;16.95;;
66575;SDS011;53428;47.686;16.584;2023-01-23T17:04:39;42.05;;;16.60;;
66575;SDS011;53428;47.686;16.584;2023-01-23T17:09:38;39.53;;;17.67;;
66575;SDS011;53428;47.686;16.584;2023-01-23T17:14:38;34.13;;;14.95;;
66575;SDS011;53428;47.686;16.584;2023-01-23T17:19:40;37.85;;;17.40;;
66575;SDS011;53428;47.686;16.584;2023-01-23T17:31:36;34.28;;;16.92;;
66575;SDS011;53428;47.686;16.584;2023-01-23T17:36:36;40.55;;;18.35;;
66575;SDS011;53428;47.686;16.584;2023-01-23T17:41:37;39.03;;;17.67;;
66575;SDS011;53428;47.686;16.584;2023-01-23T17:46:36;39.10;;;16.13;;
66575;SDS011;53428;47.686;16.584;2023-01-23T17:51:37;32.40;;;14.93;;
66575;SDS011;53428;47.686;16.584;2023-01-23T17:56:36;31.80;;;16.48;;
66575;SDS011;53428;47.686;16.584;2023-01-23T18:01:36;34.45;;;16.00;;
66575;SDS011;53428;47.686;16.584;2023-01-23T18:06:36;36.97;;;18.13;;
66575;SDS011;53428;47.686;16.584;2023-01-23T18:11:37;31.77;;;15.93;;
66575;SDS011;53428;47.686;16.584;2023-01-23T18:16:41;34.70;;;17.13;;
66575;SDS011;53428;47.686;16.584;2023-01-23T18:21:49;34.60;;;15.63;;
66575;SDS011;53428;47.686;16.584;2023-01-23T18:26:57;37.05;;;16.33;;
66575;SDS011;53428;47.686;16.584;2023-01-23T18:32:12;35.78;;;16.33;;
66575;SDS011;53428;47.686;16.584;2023-01-23T18:47:58;37.00;;;17.55;;
66575;SDS011;53428;47.686;16.584;2023-01-23T18:53:16;34.45;;;17.40;;
66575;SDS011;53428;47.686;16.584;2023-01-23T19:04:03;41.63;;;18.27;;
66575;SDS011;53428;47.686;16.584;2023-01-23T19:09:24;42.55;;;18.83;;
66575;SDS011;53428;47.686;16.584;2023-01-23T19:14:40;35.70;;;17.70;;
66575;SDS011;53428;47.686;16.584;2023-01-23T19:25:20;32.47;;;15.65;;
66575;SDS011;53428;47.686;16.584;2023-01-23T19:30:21;37.65;;;17.48;;
66575;SDS011;53428;47.686;16.584;2023-01-23T19:35:23;39.50;;;18.58;;
66575;SDS011;53428;47.686;16.584;2023-01-23T19:40:22;36.50;;;18.17;;
66575;SDS011;53428;47.686;16.584;2023-01-23T19:45:22;38.22;;;17.77;;
66575;SDS011;53428;47.686;16.584;2023-01-23T19:50:21;39.65;;;19.08;;
66575;SDS011;53428;47.686;16.584;2023-01-23T19:55:25;36.15;;;17.88;;
66575;SDS011;53428;47.686;16.584;2023-01-23T20:00:27;42.45;;;17.85;;
66575;SDS011;53428;47.686;16.584;2023-01-23T20:05:30;44.40;;;19.38;;
66575;SDS011;53428;47.686;16.584;2023-01-23T20:10:30;36.35;;;18.13;;
66575;SDS011;53428;47.686;16.584;2023-01-23T20:15:31;35.80;;;18.00;;
66575;SDS011;53428;47.686;16.584;2023-01-23T20:20:33;39.47;;;18.58;;
66575;SDS011;53428;47.686;16.584;2023-01-23T20:25:32;45.75;;;17.40;;
66575;SDS011;53428;47.686;16.584;2023-01-23T20:30:32;41.42;;;19.88;;
66575;SDS011;53428;47.686;16.584;2023-01-23T20:35:32;41.83;;;18.83;;
66575;SDS011;53428;47.686;16.584;2023-01-23T20:40:36;38.03;;;18.38;;
66575;SDS011;53428;47.686;16.584;2023-01-23T20:45:43;38.40;;;19.15;;
66575;SDS011;53428;47.686;16.584;2023-01-23T20:50:54;35.53;;;17.63;;
66575;SDS011;53428;47.686;16.584;2023-01-23T21:00:55;41.35;;;18.85;;
66575;SDS011;53428;47.686;16.584;2023-01-23T21:05:55;40.35;;;17.75;;
66575;SDS011;53428;47.686;16.584;2023-01-23T21:10:54;40.97;;;17.27;;
66575;SDS011;53428;47.686;16.584;2023-01-23T21:15:55;37.78;;;19.38;;
66575;SDS011;53428;47.686;16.584;2023-01-23T21:21:06;42.72;;;20.63;;
66575;SDS011;53428;47.686;16.584;2023-01-23T21:26:06;35.55;;;18.42;;
66575;SDS011;53428;47.686;16.584;2023-01-23T21:31:06;41.75;;;19.95;;
66575;SDS011;53428;47.686;16.584;2023-01-23T21:36:07;37.42;;;18.85;;
66575;SDS011;53428;47.686;16.584;2023-01-23T21:41:07;39.17;;;18.75;;
66575;SDS011;53428;47.686;16.584;2023-01-23T21:46:07;39.90;;;20.05;;
66575;SDS011;53428;47.686;16.584;2023-01-23T21:56:14;39.75;;;21.13;;
66575;SDS011;53428;47.686;16.584;2023-01-23T22:01:18;44.90;;;20.27;;
66575;SDS011;53428;47.686;16.584;2023-01-23T22:06:33;45.78;;;19.70;;
66575;SDS011;53428;47.686;16.584;2023-01-23T22:11:33;43.30;;;18.67;;
66575;SDS011;53428;47.686;16.584;2023-01-23T22:16:33;47.88;;;21.77;;
66575;SDS011;53428;47.686;16.584;2023-01-23T22:21:32;38.72;;;17.27;;
66575;SDS011;53428;47.686;16.584;2023-01-23T22:26:32;50.40;;;19.90;;
66575;SDS011;53428;47.686;16.584;2023-01-23T22:31:31;39.97;;;19.10;;
66575;SDS011;53428;47.686;16.584;2023-01-23T22:36:30;46.03;;;21.15;;
66575;SDS011;53428;47.686;16.584;2023-01-23T22:41:30;46.50;;;20.73;;
66575;SDS011;53428;47.686;16.584;2023-01-23T22:46:30;54.60;;;20.65;;
66575;SDS011;53428;47.686;16.584;2023-01-23T22:51:30;40.83;;;18.30;;
66575;SDS011;53428;47.686;16.584;2023-01-23T22:56:30;47.63;;;21.33;;
66575;SDS011;53428;47.686;16.584;2023-01-23T23:01:29;44.97;;;22.00;;
66575;SDS011;53428;47.686;16.584;2023-01-23T23:06:28;40.00;;;20.02;;
66575;SDS011;53428;47.686;16.584;2023-01-23T23:11:28;44.40;;;20.20;;
66575;SDS011;53428;47.686;16.584;2023-01-23T23:16:28;46.38;;;21.15;;
66575;SDS011;53428;47.686;16.584;2023-01-23T23:21:35;45.80;;;22.00;;
66575;SDS011;53428;47.686;16.584;2023-01-23T23:26:35;37.85;;;18.75;;
66575;SDS011;53428;47.686;16.584;2023-01-23T23:31:34;49.00;;;22.08;;
66575;SDS011;53428;47.686;16.584;2023-01-23T23:36:34;54.67;;;23.10;;
66575;SDS011;53428;47.686;16.584;2023-01-23T23:41:33;45.97;;;20.27;;
66575;SDS011;53428;47.686;16.584;2023-01-23T23:46:32;47.70;;;21.13;;
66575;SDS011;53428;47.686;16.584;2023-01-23T23:51:31;50.05;;;21.70;;
66575;SDS011;53428;47.686;16.584;2023-01-23T23:56:31;50.13;;;21.33;;
